Time;durP1;ratioP1;P1;durP2;ratioP2;P2;SDS_P1;SDS_P2;PMS_P1;PMS_P2;Temp;Humidity;BMP_temperature;BMP_pressure;BME280_temperature;BME280_humidity;BME280_pressure;Samples;Min_cycle;Max_cycle;Signal;HPM_P1;HPM_P2
2021/09/08 00:00:37;;;;;;;;;;;;;;;14.05;67.37;100155.47;3303969;29;20396;-74
2021/09/08 00:02:17;;;;;;;;;;;;;;;14.05;67.41;100155.47;3311934;29;20401;-74
2021/09/08 00:03:58;;;;;;;;;;;;;;;14.05;67.44;100155.47;3314782;29;19929;-74
2021/09/08 00:05:39;;;;;;;;;;;;;;;14.03;67.44;100147.59;3313412;29;19933;-74
2021/09/08 00:07:19;;;;;;;;;;;;;;;14.02;67.61;100155.84;3302665;29;20294;-75
2021/09/08 00:09:00;;;;;;;;;;;;;;;14.00;67.46;100148.03;3302368;30;20032;-74
2021/09/08 00:10:41;;;;;;;;;;;;;;;14.00;67.30;100149.88;3312972;29;19929;-74
2021/09/08 00:12:21;;;;;;;;;;;;;;;14.01;67.33;100154.22;3314807;29;19936;-74
2021/09/08 00:14:02;;;;;;;;;;;;;;;14.01;67.26;100148.84;3313996;29;19929;-76
2021/09/08 00:15:42;;;;;;;;;;;;;;;14.01;67.23;100146.16;3314092;29;19929;-75
2021/09/08 00:17:23;;;;;;;;;;;;;;;14.01;67.24;100152.34;3303042;29;19929;-75
2021/09/08 00:19:03;;;;;;;;;;;;;;;14.00;67.12;100153.38;3298254;30;20382;-75
2021/09/08 00:20:44;;;;;;;;;;;;;;;14.03;67.27;100157.50;3301456;29;20016;-77
2021/09/08 00:22:24;;;;;;;;;;;;;;;14.02;67.11;100156.69;3312087;29;19929;-76
2021/09/08 00:24:05;;;;;;;;;;;;;;;14.04;67.17;100159.16;3313470;29;19995;-75
2021/09/08 00:25:45;;;;;;;;;;;;;;;14.03;67.16;100152.16;3313762;29;20420;-76
2021/09/08 00:27:26;;;;;;;;;;;;;;;14.03;67.00;100154.84;3303992;29;19940;-76
2021/09/08 00:29:06;;;;;;;;;;;;;;;14.04;67.00;100159.97;3301637;29;19930;-74
2021/09/08 00:30:48;;;;;;;;;;;;;;;14.04;67.04;100153.78;3301386;29;19929;-73
2021/09/08 00:32:29;;;;;;;;;;;;;;;14.04;67.12;100151.94;3312693;29;19932;-73
2021/09/08 00:34:11;;;;;;;;;;;;;;;14.05;67.04;100158.13;3313873;29;19985;-74
2021/09/08 00:35:53;;;;;;;;;;;;;;;14.05;66.99;100144.72;3324685;29;20498;-74
2021/09/08 00:37:38;;;;;;;;;;;;;;;14.06;66.82;100146.38;3306804;29;20386;-73
2021/09/08 00:39:19;;;;;;;;;;;;;;;14.04;66.86;100145.75;3312917;29;20490;-75
2021/09/08 00:41:01;;;;;;;;;;;;;;;14.03;66.76;100149.47;3303673;29;20071;-75
2021/09/08 00:42:42;;;;;;;;;;;;;;;14.03;66.92;100144.09;3313716;29;20006;-76
2021/09/08 00:44:25;;;;;;;;;;;;;;;14.01;66.93;100148.84;3313465;29;20454;-75
2021/09/08 00:46:07;;;;;;;;;;;;;;;14.00;66.73;100147.22;3313063;29;19933;-73
2021/09/08 00:47:48;;;;;;;;;;;;;;;13.98;66.88;100150.09;3302974;29;20394;-73
2021/09/08 00:49:28;;;;;;;;;;;;;;;13.96;66.87;100150.31;3301258;29;19930;-73
2021/09/08 00:51:09;;;;;;;;;;;;;;;13.98;66.99;100149.25;3288780;30;19937;-73
2021/09/08 00:52:51;;;;;;;;;;;;;;;13.97;66.94;100140.41;3311138;29;19929;-74
2021/09/08 00:54:33;;;;;;;;;;;;;;;13.98;66.85;100143.91;3312676;29;20470;-74
2021/09/08 00:56:14;;;;;;;;;;;;;;;13.97;67.04;100148.44;3312811;29;20302;-74
2021/09/08 00:57:55;;;;;;;;;;;;;;;13.95;66.98;100145.97;3311997;29;19929;-75
2021/09/08 00:59:40;;;;;;;;;;;;;;;13.95;66.74;100137.91;3325094;29;19959;-74
2021/09/08 01:01:21;;;;;;;;;;;;;;;13.95;66.83;100142.47;3314710;29;19979;-73
2021/09/08 01:03:03;;;;;;;;;;;;;;;13.95;66.83;100145.13;3313037;29;20083;-75
2021/09/08 01:04:45;;;;;;;;;;;;;;;13.97;66.90;100143.09;3313433;29;19929;-74
2021/09/08 01:06:26;;;;;;;;;;;;;;;13.98;66.74;100141.22;3313187;29;20279;-73
2021/09/08 01:08:09;;;;;;;;;;;;;;;13.98;66.69;100143.91;3312436;29;20305;-75
2021/09/08 01:09:50;;;;;;;;;;;;;;;13.99;66.59;100140.19;3312358;29;19929;-73
2021/09/08 01:11:31;;;;;;;;;;;;;;;13.98;66.63;100138.53;3310043;29;20877;-74
2021/09/08 01:13:11;;;;;;;;;;;;;;;13.98;66.61;100138.53;3312598;29;19941;-74
2021/09/08 01:14:53;;;;;;;;;;;;;;;13.99;66.58;100140.19;3313358;29;20023;-76
2021/09/08 01:16:34;;;;;;;;;;;;;;;13.99;66.57;100140.19;3312629;29;20418;-76
2021/09/08 01:18:15;;;;;;;;;;;;;;;14.00;66.55;100141.84;3300833;29;19929;-75
2021/09/08 01:19:55;;;;;;;;;;;;;;;13.99;66.54;100142.88;3310899;29;19929;-75
2021/09/08 01:21:36;;;;;;;;;;;;;;;13.99;66.41;100140.19;3313124;29;19936;-75
2021/09/08 01:23:16;;;;;;;;;;;;;;;13.96;66.41;100141.41;3312933;29;20016;-77
2021/09/08 01:24:57;;;;;;;;;;;;;;;13.95;66.68;100140.59;3312094;29;19990;-74
2021/09/08 01:26:38;;;;;;;;;;;;;;;13.94;66.60;100138.97;3312538;29;19936;-74
2021/09/08 01:28:19;;;;;;;;;;;;;;;13.94;66.45;100138.97;3301664;29;19929;-75
2021/09/08 01:30:01;;;;;;;;;;;;;;;13.92;66.71;100146.38;3300209;29;20161;-74
2021/09/08 01:31:43;;;;;;;;;;;;;;;13.89;66.65;100146.78;3300719;29;19930;-74
2021/09/08 01:33:24;;;;;;;;;;;;;;;13.88;66.67;100145.13;3305681;29;19968;-73
2021/09/08 01:35:06;;;;;;;;;;;;;;;13.88;66.51;100136.25;3312981;29;19975;-73
2021/09/08 01:36:46;;;;;;;;;;;;;;;13.88;66.72;100146.97;3312938;29;19929;-73
2021/09/08 01:38:27;;;;;;;;;;;;;;;13.88;66.63;100136.25;3303387;29;20020;-73
2021/09/08 01:40:08;;;;;;;;;;;;;;;13.87;66.55;100138.13;3300708;29;19982;-73
2021/09/08 01:41:48;;;;;;;;;;;;;;;13.85;66.52;100134.81;3300828;29;19986;-73
2021/09/08 01:43:29;;;;;;;;;;;;;;;13.84;66.64;100135.84;3306835;29;19936;-73
2021/09/08 01:45:13;;;;;;;;;;;;;;;13.85;66.71;100140.19;3313077;29;20389;-73
2021/09/08 01:46:56;;;;;;;;;;;;;;;13.85;66.56;100134.81;3312646;29;20410;-72
2021/09/08 01:48:38;;;;;;;;;;;;;;;13.85;66.47;100140.19;3303725;29;19985;-73
2021/09/08 01:50:18;;;;;;;;;;;;;;;13.86;66.64;100132.97;3300459;29;19937;-75
2021/09/08 01:51:59;;;;;;;;;;;;;;;13.86;66.62;100135.63;3300452;29;20351;-74
2021/09/08 01:53:39;;;;;;;;;;;;;;;13.84;66.74;100132.38;3307536;29;20283;-74
2021/09/08 01:55:20;;;;;;;;;;;;;;;13.84;66.48;100135.84;3312887;29;19929;-73
2021/09/08 01:57:00;;;;;;;;;;;;;;;13.85;66.46;100136.69;3312279;29;19936;-74
2021/09/08 01:58:41;;;;;;;;;;;;;;;13.84;66.55;100138.53;3310202;29;20444;-73
2021/09/08 02:00:21;;;;;;;;;;;;;;;13.84;66.69;100135.84;3312503;29;19996;-75
2021/09/08 02:02:02;;;;;;;;;;;;;;;13.83;66.56;100138.72;3312878;29;19932;-75
2021/09/08 02:03:42;;;;;;;;;;;;;;;13.83;66.39;100136.06;3312375;29;20020;-75
2021/09/08 02:05:23;;;;;;;;;;;;;;;13.81;66.53;100138.94;3312511;29;19951;-75
2021/09/08 02:07:05;;;;;;;;;;;;;;;13.81;66.53;100133.59;3311323;29;19929;-75
2021/09/08 02:08:45;;;;;;;;;;;;;;;13.80;66.39;100137.28;3310660;29;19984;-75
2021/09/08 02:10:26;;;;;;;;;;;;;;;13.81;66.47;100128.25;3312789;29;19936;-74
2021/09/08 02:12:07;;;;;;;;;;;;;;;13.80;66.45;100134.59;3313168;29;19929;-73
2021/09/08 02:13:48;;;;;;;;;;;;;;;13.79;66.45;100138.31;3312586;29;19929;-75
2021/09/08 02:15:29;;;;;;;;;;;;;;;13.78;66.53;100135.84;3311753;29;20765;-76
2021/09/08 02:17:10;;;;;;;;;;;;;;;13.76;66.64;100130.72;3312574;29;20028;-75
2021/09/08 02:18:51;;;;;;;;;;;;;;;13.74;66.50;100136.25;3311220;29;20464;-74
2021/09/08 02:20:32;;;;;;;;;;;;;;;13.73;66.60;100128.41;3312535;29;20035;-77
2021/09/08 02:22:12;;;;;;;;;;;;;;;13.71;66.50;100117.09;3312711;29;19937;-74
2021/09/08 02:23:53;;;;;;;;;;;;;;;13.70;66.55;100120.78;3312173;29;19929;-73
2021/09/08 02:25:33;;;;;;;;;;;;;;;13.73;66.63;100125.72;3312979;29;19929;-73
2021/09/08 02:27:14;;;;;;;;;;;;;;;13.75;66.58;100129.03;3312552;29;19929;-76
2021/09/08 02:28:54;;;;;;;;;;;;;;;13.76;66.77;100114.63;3307342;29;19929;-72
2021/09/08 02:30:35;;;;;;;;;;;;;;;13.76;66.64;100120.00;3300736;29;20024;-75
2021/09/08 02:32:15;;;;;;;;;;;;;;;13.76;66.83;100111.94;3300500;29;20377;-76
2021/09/08 02:33:57;;;;;;;;;;;;;;;13.78;66.47;100111.72;3308886;29;19964;-73
2021/09/08 02:35:37;;;;;;;;;;;;;;;13.80;66.45;100113.16;3312775;29;19929;-73
2021/09/08 02:37:18;;;;;;;;;;;;;;;13.82;66.60;100119.16;3312292;29;20384;-75
2021/09/08 02:39:00;;;;;;;;;;;;;;;13.80;66.75;100115.84;3310482;29;19929;-74
2021/09/08 02:40:40;;;;;;;;;;;;;;;13.78;66.54;100117.09;3296726;30;19937;-74
2021/09/08 02:42:21;;;;;;;;;;;;;;;13.76;66.48;100114.63;3299646;30;19925;-75
2021/09/08 02:44:01;;;;;;;;;;;;;;;13.74;66.65;100106.78;3308819;29;19929;-73
2021/09/08 02:45:42;;;;;;;;;;;;;;;13.73;66.66;100105.16;3312231;29;19975;-75
2021/09/08 02:47:22;;;;;;;;;;;;;;;13.71;66.63;100096.50;3312131;29;19929;-73
2021/09/08 02:49:03;;;;;;;;;;;;;;;13.71;66.52;100099.16;3311732;29;19935;-74
2021/09/08 02:50:44;;;;;;;;;;;;;;;13.71;66.63;100099.16;3310710;29;20416;-74
2021/09/08 02:52:24;;;;;;;;;;;;;;;13.71;66.52;100101.84;3323990;29;19932;-75
2021/09/08 02:54:05;;;;;;;;;;;;;;;13.71;66.66;100101.03;3314128;29;19929;-74
2021/09/08 02:55:46;;;;;;;;;;;;;;;13.72;66.69;100090.09;3311879;29;20066;-76
2021/09/08 02:57:26;;;;;;;;;;;;;;;13.73;66.71;100105.16;3312108;29;19929;-75
2021/09/08 02:59:07;;;;;;;;;;;;;;;13.71;66.54;100101.84;3313559;29;19925;-76
2021/09/08 03:00:47;;;;;;;;;;;;;;;13.72;66.57;100102.66;3310464;29;19964;-74
2021/09/08 03:02:28;;;;;;;;;;;;;;;13.74;66.60;100105.97;3314838;29;19925;-75
2021/09/08 03:04:09;;;;;;;;;;;;;;;13.76;66.70;100095.88;3314435;29;19929;-74
2021/09/08 03:05:51;;;;;;;;;;;;;;;13.74;66.46;100105.97;3326117;29;19924;-74
2021/09/08 03:07:31;;;;;;;;;;;;;;;13.74;66.52;100096.06;3303578;29;19933;-76
2021/09/08 03:09:12;;;;;;;;;;;;;;;13.72;66.64;100094.63;3311792;29;20002;-74
2021/09/08 03:10:53;;;;;;;;;;;;;;;13.68;66.51;100098.72;3312016;29;19929;-79
2021/09/08 03:12:34;;;;;;;;;;;;;;;13.67;66.60;100105.13;3326257;29;20411;-75
2021/09/08 03:14:14;;;;;;;;;;;;;;;13.66;66.54;100098.13;3316727;29;19982;-74
2021/09/08 03:15:55;;;;;;;;;;;;;;;13.66;66.43;100098.13;3314528;29;19929;-74
2021/09/08 03:17:35;;;;;;;;;;;;;;;13.66;66.56;100098.94;3314553;29;19929;-75
2021/09/08 03:19:16;;;;;;;;;;;;;;;13.65;66.55;100097.28;3313690;29;20031;-75
2021/09/08 03:20:56;;;;;;;;;;;;;;;13.65;66.36;100104.50;3312690;29;19929;-76
2021/09/08 03:22:37;;;;;;;;;;;;;;;13.61;66.45;100095.25;3314421;29;20016;-74
2021/09/08 03:24:17;;;;;;;;;;;;;;;13.61;66.46;100101.41;3314025;29;20462;-73
2021/09/08 03:25:58;;;;;;;;;;;;;;;13.62;66.31;100096.88;3314191;29;19952;-73
2021/09/08 03:27:40;;;;;;;;;;;;;;;13.62;66.49;100102.25;3314255;29;20047;-77
2021/09/08 03:29:22;;;;;;;;;;;;;;;13.62;66.41;100091.53;3314173;29;20397;-73
2021/09/08 03:31:02;;;;;;;;;;;;;;;13.63;66.48;100095.84;3309419;29;19933;-76
2021/09/08 03:32:43;;;;;;;;;;;;;;;13.62;66.41;100096.88;3301713;29;19929;-77
2021/09/08 03:34:24;;;;;;;;;;;;;;;13.62;66.47;100091.53;3312053;29;19929;-80
2021/09/08 03:36:04;;;;;;;;;;;;;;;13.63;66.51;100095.84;3314037;29;19929;-75
2021/09/08 03:37:45;;;;;;;;;;;;;;;13.62;66.38;100097.69;3314302;29;19960;-75
2021/09/08 03:39:25;;;;;;;;;;;;;;;13.62;66.44;100094.19;3326108;29;19936;-75
2021/09/08 03:41:06;;;;;;;;;;;;;;;13.63;66.72;100095.84;3311236;29;19951;-76
2021/09/08 03:42:46;;;;;;;;;;;;;;;13.64;66.57;100092.16;3314500;29;19929;-76
2021/09/08 03:44:27;;;;;;;;;;;;;;;13.66;66.42;100093.59;3314044;29;19995;-75
2021/09/08 03:46:08;;;;;;;;;;;;;;;13.67;66.25;100095.22;3326112;29;19928;-76
2021/09/08 03:47:49;;;;;;;;;;;;;;;13.67;66.29;100110.50;3316743;29;20412;-75
2021/09/08 03:49:29;;;;;;;;;;;;;;;13.67;66.32;100095.22;3312086;29;19933;-78
2021/09/08 03:51:10;;;;;;;;;;;;;;;13.67;66.30;100099.78;3302918;29;19935;-75
2021/09/08 03:52:52;;;;;;;;;;;;;;;13.68;66.23;100096.91;3314561;29;19936;-78
2021/09/08 03:54:34;;;;;;;;;;;;;;;13.71;66.25;100098.34;3316725;29;19929;-77
2021/09/08 03:56:15;;;;;;;;;;;;;;;13.71;65.93;100096.50;3314487;29;19929;-76
2021/09/08 03:57:55;;;;;;;;;;;;;;;13.72;66.11;100091.94;3314331;29;19929;-76
2021/09/08 03:59:36;;;;;;;;;;;;;;;13.72;66.05;100097.31;3314531;29;19985;-76
2021/09/08 04:01:17;;;;;;;;;;;;;;;13.70;66.13;100092.13;3308621;29;19929;-77
2021/09/08 04:02:57;;;;;;;;;;;;;;;13.69;66.26;100098.53;3303322;29;19982;-77
2021/09/08 04:04:39;;;;;;;;;;;;;;;13.71;66.14;100101.03;3313693;29;19975;-76
2021/09/08 04:06:20;;;;;;;;;;;;;;;13.73;66.23;100098.94;3314029;29;19935;-76
2021/09/08 04:08:00;;;;;;;;;;;;;;;13.75;66.17;100107.59;3314258;29;19929;-79
2021/09/08 04:09:41;;;;;;;;;;;;;;;13.78;66.10;100098.34;3314234;29;20458;-73
2021/09/08 04:11:21;;;;;;;;;;;;;;;13.79;66.07;100100.81;3311639;29;19927;-76
2021/09/08 04:13:02;;;;;;;;;;;;;;;13.78;65.95;100099.16;3312097;29;20390;-77
2021/09/08 04:14:42;;;;;;;;;;;;;;;13.77;66.20;100102.88;3314445;29;19994;-73
2021/09/08 04:16:23;;;;;;;;;;;;;;;13.78;66.09;100099.16;3314435;29;20386;-75
2021/09/08 04:18:07;;;;;;;;;;;;;;;13.84;66.50;100101.03;3324532;29;19935;-78
2021/09/08 04:19:50;;;;;;;;;;;;;;;13.91;66.76;100099.19;3312186;29;19956;-78
2021/09/08 04:21:30;;;;;;;;;;;;;;;13.98;67.23;100098.34;3308010;29;19985;-78
2021/09/08 04:23:11;;;;;;;;;;;;;;;14.03;67.47;100096.69;3292814;30;19930;-76
2021/09/08 04:24:51;;;;;;;;;;;;;;;14.09;67.19;100090.50;3306886;29;20016;-78
2021/09/08 04:26:32;;;;;;;;;;;;;;;14.17;67.27;100097.50;3312828;29;19936;-76
2021/09/08 04:28:12;;;;;;;;;;;;;;;14.26;67.34;100095.44;3313108;29;19929;-76
2021/09/08 04:29:53;;;;;;;;;;;;;;;14.30;67.29;100100.19;3313779;29;19929;-77
2021/09/08 04:31:33;;;;;;;;;;;;;;;14.34;66.98;100092.53;3303789;29;19929;-76
2021/09/08 04:33:14;;;;;;;;;;;;;;;14.41;67.70;100090.66;3325268;29;19929;-75
2021/09/08 04:34:54;;;;;;;;;;;;;;;14.47;67.47;100089.00;3315614;29;19929;-78
2021/09/08 04:36:35;;;;;;;;;;;;;;;14.50;67.16;100091.25;3313645;29;19933;-76
2021/09/08 04:38:15;;;;;;;;;;;;;;;14.50;66.94;100088.56;3313247;29;20027;-78
2021/09/08 04:39:58;;;;;;;;;;;;;;;14.51;67.14;100090.25;3314075;29;20372;-77
2021/09/08 04:41:39;;;;;;;;;;;;;;;14.54;67.19;100092.53;3312028;29;19929;-77
2021/09/08 04:43:20;;;;;;;;;;;;;;;14.57;67.03;100084.06;3309364;29;19936;-76
2021/09/08 04:45:00;;;;;;;;;;;;;;;14.60;67.02;100091.66;3314568;29;20007;-76
2021/09/08 04:46:41;;;;;;;;;;;;;;;14.62;66.77;100084.25;3313454;29;20070;-75
2021/09/08 04:48:21;;;;;;;;;;;;;;;14.65;66.62;100091.03;3313571;29;19929;-77
2021/09/08 04:50:02;;;;;;;;;;;;;;;14.67;66.49;100088.97;3312926;29;19929;-75
2021/09/08 04:51:42;;;;;;;;;;;;;;;14.68;66.61;100086.06;3311678;29;19935;-79
2021/09/08 04:53:23;;;;;;;;;;;;;;;14.72;66.39;100092.66;3310460;29;20023;-75
2021/09/08 04:55:06;;;;;;;;;;;;;;;14.74;66.33;100090.59;3323996;29;19991;-77
2021/09/08 04:56:46;;;;;;;;;;;;;;;14.79;66.39;100088.13;3313367;29;19976;-76
2021/09/08 04:58:27;;;;;;;;;;;;;;;14.82;66.36;100093.03;3301288;30;19940;-76
2021/09/08 05:00:08;;;;;;;;;;;;;;;14.85;66.34;100091.81;3313678;29;19929;-76
2021/09/08 05:01:48;;;;;;;;;;;;;;;14.86;66.11;100089.94;3312306;29;19929;-76
2021/09/08 05:03:30;;;;;;;;;;;;;;;14.87;66.05;100087.06;3311137;29;19929;-77
2021/09/08 05:05:11;;;;;;;;;;;;;;;14.85;65.93;100081.06;3311009;29;19929;-74
2021/09/08 05:06:52;;;;;;;;;;;;;;;14.86;65.73;100088.06;3305172;29;20082;-75
2021/09/08 05:08:32;;;;;;;;;;;;;;;14.92;66.00;100083.69;3306748;29;19976;-77
2021/09/08 05:10:13;;;;;;;;;;;;;;;14.95;65.98;100083.31;3311842;29;19964;-76
2021/09/08 05:11:53;;;;;;;;;;;;;;;14.98;66.03;100085.56;3312253;29;19929;-76
2021/09/08 05:13:34;;;;;;;;;;;;;;;15.02;65.81;100086.75;3304334;29;19952;-77
2021/09/08 05:15:16;;;;;;;;;;;;;;;15.03;65.90;100078.50;3300956;29;19937;-76
2021/09/08 05:16:56;;;;;;;;;;;;;;;15.05;65.96;100086.34;3305237;29;19925;-74
2021/09/08 05:18:37;;;;;;;;;;;;;;;15.09;65.56;100081.38;3312633;29;19936;-74
2021/09/08 05:20:17;;;;;;;;;;;;;;;15.11;65.38;100079.31;3308254;29;19987;-76
2021/09/08 05:21:58;;;;;;;;;;;;;;;15.14;65.27;100077.00;3308203;29;19928;-75
2021/09/08 05:23:39;;;;;;;;;;;;;;;15.22;65.30;100071.38;3306583;29;19925;-76
2021/09/08 05:25:19;;;;;;;;;;;;;;;15.30;65.25;100075.66;3300226;29;19929;-74
2021/09/08 05:27:00;;;;;;;;;;;;;;;15.38;65.30;100075.41;3312384;29;20036;-75
2021/09/08 05:28:40;;;;;;;;;;;;;;;15.44;65.01;100081.78;3310974;29;19984;-75
2021/09/08 05:30:21;;;;;;;;;;;;;;;15.51;64.77;100071.81;3306549;29;19967;-74
2021/09/08 05:32:01;;;;;;;;;;;;;;;15.55;64.95;100074.91;3311734;29;19929;-75
2021/09/08 05:33:42;;;;;;;;;;;;;;;15.62;64.59;100071.13;3312086;29;19929;-75
2021/09/08 05:35:22;;;;;;;;;;;;;;;15.64;64.24;100074.41;3313159;29;19929;-75
2021/09/08 05:37:03;;;;;;;;;;;;;;;15.67;64.25;100073.97;3313295;29;20728;-74
2021/09/08 05:38:45;;;;;;;;;;;;;;;15.69;63.73;100071.94;3308670;29;19959;-74
2021/09/08 05:40:26;;;;;;;;;;;;;;;15.75;63.96;100075.59;3312482;29;19936;-75
2021/09/08 05:42:06;;;;;;;;;;;;;;;15.77;63.24;100072.69;3310867;29;19929;-74
2021/09/08 05:43:47;;;;;;;;;;;;;;;15.80;63.66;100077.59;3308633;29;19968;-75
2021/09/08 05:45:27;;;;;;;;;;;;;;;15.88;63.45;100072.00;3309505;29;20386;-73
2021/09/08 05:47:08;;;;;;;;;;;;;;;15.95;63.03;100079.97;3312712;29;20295;-74
2021/09/08 05:48:48;;;;;;;;;;;;;;;16.01;62.94;100074.56;3312762;29;19929;-74
2021/09/08 05:50:29;;;;;;;;;;;;;;;16.07;62.56;100072.84;3312865;29;19937;-74
2021/09/08 05:52:10;;;;;;;;;;;;;;;16.12;62.65;100071.13;3311580;29;20076;-74
2021/09/08 05:53:50;;;;;;;;;;;;;;;16.19;62.44;100064.88;3322549;29;20355;-73
2021/09/08 05:55:31;;;;;;;;;;;;;;;16.26;62.27;100062.94;3313205;29;20001;-73
2021/09/08 05:57:11;;;;;;;;;;;;;;;16.34;62.14;100071.53;3312264;29;19933;-73
2021/09/08 05:58:52;;;;;;;;;;;;;;;16.43;61.83;100072.06;3302105;29;19937;-73
2021/09/08 06:00:32;;;;;;;;;;;;;;;16.55;61.88;100067.59;3303307;29;20082;-73
2021/09/08 06:02:13;;;;;;;;;;;;;;;16.67;61.42;100066.81;3312828;29;19968;-73
2021/09/08 06:03:53;;;;;;;;;;;;;;;16.84;61.15;100078.66;3312153;29;19929;-74
2021/09/08 06:05:34;;;;;;;;;;;;;;;17.00;60.68;100064.56;3309120;29;19983;-74
2021/09/08 06:07:14;;;;;;;;;;;;;;;17.13;60.20;100065.44;3310685;29;19929;-74
2021/09/08 06:08:55;;;;;;;;;;;;;;;17.25;59.67;100062.81;3304312;29;19987;-74
2021/09/08 06:10:36;;;;;;;;;;;;;;;17.35;59.92;100068.47;3308562;29;19929;-73
2021/09/08 06:12:16;;;;;;;;;;;;;;;17.43;59.43;100060.88;3306867;29;19976;-75
2021/09/08 06:13:57;;;;;;;;;;;;;;;17.55;59.13;100062.75;3304050;29;20005;-73
2021/09/08 06:15:37;;;;;;;;;;;;;;;17.66;58.61;100068.19;3308060;29;20020;-72
2021/09/08 06:17:18;;;;;;;;;;;;;;;17.81;58.68;100062.38;3300028;29;19948;-74
2021/09/08 06:18:58;;;;;;;;;;;;;;;18.01;58.09;100059.31;3311183;29;20033;-74
2021/09/08 06:20:39;;;;;;;;;;;;;;;18.26;57.87;100064.50;3323245;29;20400;-74
2021/09/08 06:22:19;;;;;;;;;;;;;;;18.50;57.37;100064.47;3304541;29;19951;-74
2021/09/08 06:24:00;;;;;;;;;;;;;;;18.70;57.26;100058.66;3300049;29;20465;-73
2021/09/08 06:25:40;;;;;;;;;;;;;;;18.83;56.61;100063.81;3300126;29;19976;-74
2021/09/08 06:27:21;;;;;;;;;;;;;;;18.88;56.88;100057.72;3300769;29;19929;-73
2021/09/08 06:29:01;;;;;;;;;;;;;;;18.88;56.66;100055.00;3300020;29;20302;-74
2021/09/08 06:30:42;;;;;;;;;;;;;;;18.83;56.45;100063.00;3302023;29;19935;-73
2021/09/08 06:32:23;;;;;;;;;;;;;;;18.76;56.12;100051.53;3310834;29;19936;-74
2021/09/08 06:34:03;;;;;;;;;;;;;;;18.64;55.76;100046.94;3311881;29;19978;-74
2021/09/08 06:35:44;;;;;;;;;;;;;;;18.52;56.24;100054.25;3312444;29;20408;-74
2021/09/08 06:37:24;;;;;;;;;;;;;;;18.37;56.46;100059.31;3312155;29;20338;-74
2021/09/08 06:39:06;;;;;;;;;;;;;;;18.20;56.35;100054.66;3312288;29;19936;-74
2021/09/08 06:40:46;;;;;;;;;;;;;;;18.07;56.02;100054.88;3308951;29;20007;-75
2021/09/08 06:42:27;;;;;;;;;;;;;;;18.00;56.04;100059.56;3312084;29;19932;-74
2021/09/08 06:44:07;;;;;;;;;;;;;;;17.97;55.85;100051.97;3323967;29;19921;-75
2021/09/08 06:45:48;;;;;;;;;;;;;;;17.96;56.47;100058.38;3314706;29;20526;-75
2021/09/08 06:47:28;;;;;;;;;;;;;;;17.92;56.66;100062.63;3312071;29;19921;-75
2021/09/08 06:49:09;;;;;;;;;;;;;;;17.87;56.12;100053.34;3310656;29;19929;-75
2021/09/08 06:50:50;;;;;;;;;;;;;;;17.84;56.17;100050.31;3309630;29;20487;-74
2021/09/08 06:52:30;;;;;;;;;;;;;;;17.79;56.41;100052.84;3309569;29;20015;-74
2021/09/08 06:54:11;;;;;;;;;;;;;;;17.74;56.43;100056.25;3310129;29;19929;-74
2021/09/08 06:55:52;;;;;;;;;;;;;;;17.64;56.44;100050.59;3303395;29;19929;-74
2021/09/08 06:57:33;;;;;;;;;;;;;;;17.57;56.42;100049.88;3309210;29;19929;-74
2021/09/08 06:59:14;;;;;;;;;;;;;;;17.52;56.03;100044.38;3301027;29;20087;-74
2021/09/08 07:00:55;;;;;;;;;;;;;;;17.44;56.36;100040.94;3304766;29;20389;-74
2021/09/08 07:02:36;;;;;;;;;;;;;;;17.42;56.13;100048.47;3311209;29;20425;-74
2021/09/08 07:04:16;;;;;;;;;;;;;;;17.41;56.30;100046.78;3309323;29;20440;-74
2021/09/08 07:05:57;;;;;;;;;;;;;;;17.39;56.50;100038.13;3306317;29;19968;-74
2021/09/08 07:07:39;;;;;;;;;;;;;;;17.39;56.20;100037.31;3311571;29;19937;-73
2021/09/08 07:09:20;;;;;;;;;;;;;;;17.37;56.25;100036.69;3307029;29;19933;-75
2021/09/08 07:11:00;;;;;;;;;;;;;;;17.34;56.20;100037.97;3300522;29;19933;-75
2021/09/08 07:12:42;;;;;;;;;;;;;;;17.33;56.54;100028.28;3305976;29;19974;-75
2021/09/08 07:14:26;;;;;;;;;;;;;;;17.31;56.22;100033.06;3299185;29;19978;-75
2021/09/08 07:16:07;;;;;;;;;;;;;;;17.32;56.30;100041.97;3307007;29;19951;-75
2021/09/08 07:17:47;;;;;;;;;;;;;;;17.30;56.02;100028.75;3298389;29;19929;-75
2021/09/08 07:19:28;;;;;;;;;;;;;;;17.33;55.90;100027.47;3309488;29;20301;-74
2021/09/08 07:21:09;;;;;;;;;;;;;;;17.37;56.17;100025.94;3311216;29;19952;-74
2021/09/08 07:22:49;;;;;;;;;;;;;;;17.41;56.26;100025.25;3312145;29;20342;-74
2021/09/08 07:24:30;;;;;;;;;;;;;;;17.52;55.79;100030.88;3308746;29;20468;-73
2021/09/08 07:26:10;;;;;;;;;;;;;;;17.57;55.29;100022.94;3307049;29;20019;-75
2021/09/08 07:27:51;;;;;;;;;;;;;;;17.63;55.60;100030.91;3308497;29;19933;-75
2021/09/08 07:29:32;;;;;;;;;;;;;;;17.65;55.28;100025.28;3310986;29;20452;-75
2021/09/08 07:31:15;;;;;;;;;;;;;;;17.68;55.43;100024.81;3302765;29;19986;-75
2021/09/08 07:32:56;;;;;;;;;;;;;;;17.70;55.33;100029.97;3303582;29;19929;-74
2021/09/08 07:34:38;;;;;;;;;;;;;;;17.72;55.18;100027.88;3308364;29;19933;-74
2021/09/08 07:36:18;;;;;;;;;;;;;;;17.75;55.28;100028.22;3309196;29;20422;-75
2021/09/08 07:38:00;;;;;;;;;;;;;;;17.76;55.41;100019.09;3307395;29;19935;-74
2021/09/08 07:39:42;;;;;;;;;;;;;;;17.75;55.30;100030.09;3311088;29;19929;-75
2021/09/08 07:41:25;;;;;;;;;;;;;;;17.66;55.04;100024.25;3311382;29;19932;-77
2021/09/08 07:43:06;;;;;;;;;;;;;;;17.57;54.84;100026.44;3309995;29;20074;-76
2021/09/08 07:44:49;;;;;;;;;;;;;;;17.51;54.69;100019.28;3309083;29;19925;-76
2021/09/08 07:46:30;;;;;;;;;;;;;;;17.43;54.54;100023.13;3313247;29;19936;-77
2021/09/08 07:48:10;;;;;;;;;;;;;;;17.39;54.94;100021.94;3314471;29;19929;-76
2021/09/08 07:49:55;;;;;;;;;;;;;;;17.36;55.02;100022.41;3311270;29;20371;-77
2021/09/08 07:51:35;;;;;;;;;;;;;;;17.34;54.69;100023.69;3319327;29;19935;-77
2021/09/08 07:53:16;;;;;;;;;;;;;;;17.33;54.95;100025.56;3316219;29;20027;-77
2021/09/08 07:54:56;;;;;;;;;;;;;;;17.29;54.49;100026.25;3314720;29;19952;-77
2021/09/08 07:56:37;;;;;;;;;;;;;;;17.23;54.47;100019.94;3313323;29;20406;-76
2021/09/08 07:58:17;;;;;;;;;;;;;;;17.18;54.55;100026.00;3313380;29;19928;-76
2021/09/08 07:59:58;;;;;;;;;;;;;;;17.17;54.64;100031.63;3313235;29;20392;-75
2021/09/08 08:01:38;;;;;;;;;;;;;;;17.16;54.89;100029.97;3312481;29;20027;-74
2021/09/08 08:03:20;;;;;;;;;;;;;;;17.08;54.78;100030.31;3313097;29;19929;-79
2021/09/08 08:05:01;;;;;;;;;;;;;;;17.01;55.02;100035.75;3312965;29;19937;-75
2021/09/08 08:06:42;;;;;;;;;;;;;;;16.94;55.00;100035.88;3312004;29;19928;-74
2021/09/08 08:08:23;;;;;;;;;;;;;;;16.86;55.15;100033.50;3307699;29;19929;-75
2021/09/08 08:10:05;;;;;;;;;;;;;;;16.83;55.00;100035.81;3313152;29;19929;-77
2021/09/08 08:11:45;;;;;;;;;;;;;;;16.78;55.00;100040.03;3315560;29;20425;-77
2021/09/08 08:13:27;;;;;;;;;;;;;;;16.76;55.32;100038.56;3323511;29;19928;-76
2021/09/08 08:15:08;;;;;;;;;;;;;;;16.72;55.20;100042.75;3315318;29;20341;-72
2021/09/08 08:16:51;;;;;;;;;;;;;;;16.67;55.46;100050.69;3311992;29;19929;-72
2021/09/08 08:18:32;;;;;;;;;;;;;;;16.62;55.56;100032.50;3323625;29;20104;-73
2021/09/08 08:20:14;;;;;;;;;;;;;;;16.57;55.55;100038.59;3325342;29;19986;-73
2021/09/08 08:21:54;;;;;;;;;;;;;;;16.52;55.38;100043.81;3313021;29;19929;-75
2021/09/08 08:23:39;;;;;;;;;;;;;;;16.46;55.37;100039.31;3313379;29;20397;-74
2021/09/08 08:25:29;;;;;;;;;;;;;;;16.41;55.45;100028.41;3312898;29;19929;-73
2021/09/08 08:27:09;;;;;;;;;;;;;;;16.36;55.33;100033.66;3313394;29;20382;-74
2021/09/08 08:28:50;;;;;;;;;;;;;;;16.34;55.37;100022.28;3312674;29;19929;-73
2021/09/08 08:30:31;;;;;;;;;;;;;;;16.34;55.23;100019.59;3309962;29;19929;-74
2021/09/08 08:32:12;;;;;;;;;;;;;;;16.32;55.22;100029.78;3310507;29;19929;-75
2021/09/08 08:33:52;;;;;;;;;;;;;;;16.30;55.27;100018.41;3312011;29;20485;-76
2021/09/08 08:35:33;;;;;;;;;;;;;;;16.27;55.01;100024.25;3313956;29;19992;-76
2021/09/08 08:37:14;;;;;;;;;;;;;;;16.25;55.56;100019.06;3313583;29;19925;-76